Time;durP1;ratioP1;P1;durP2;ratioP2;P2;SDS_P1;SDS_P2;PMS_P1;PMS_P2;Temp;Humidity;BMP_temperature;BMP_pressure;BME280_temperature;BME280_humidity;BME280_pressure;Samples;Min_cycle;Max_cycle;Signal;HPM_P1;HPM_P2
2022/03/17 00:00:07;;;;;;;15.82;9.18;;;12.40;99.90;;;;;;5032479;28;20130;-38
2022/03/17 00:02:33;;;;;;;14.95;8.55;;;12.50;99.90;;;;;;5032411;28;20030;-39
2022/03/17 00:04:59;;;;;;;11.82;8.02;;;12.40;99.90;;;;;;5033568;28;20037;-40
2022/03/17 00:07:25;;;;;;;16.70;8.55;;;12.40;99.90;;;;;;5034673;28;20084;-38
2022/03/17 00:09:50;;;;;;;19.15;9.00;;;12.40;99.90;;;;;;5029165;28;20032;-40
2022/03/17 00:12:16;;;;;;;17.50;9.38;;;12.40;99.90;;;;;;5033163;28;20084;-40
2022/03/17 00:14:41;;;;;;;17.15;8.98;;;12.40;99.90;;;;;;5032198;28;20061;-35
2022/03/17 00:17:08;;;;;;;15.70;8.85;;;12.40;99.90;;;;;;5030807;28;20048;-32
2022/03/17 00:19:36;;;;;;;12.43;7.80;;;12.40;99.90;;;;;;5029647;28;20022;-31
2022/03/17 00:22:03;;;;;;;14.38;8.52;;;12.30;99.90;;;;;;5027922;28;20046;-37
2022/03/17 00:24:29;;;;;;;16.98;9.30;;;12.30;99.90;;;;;;5029800;28;20097;-32
2022/03/17 00:26:55;;;;;;;15.55;9.05;;;12.30;99.90;;;;;;5022503;28;20053;-48
2022/03/17 00:29:21;;;;;;;17.70;9.43;;;12.30;99.90;;;;;;5019949;28;20033;-36
2022/03/17 00:31:46;;;;;;;16.75;8.77;;;12.30;99.90;;;;;;5033046;28;20113;-34
2022/03/17 00:34:12;;;;;;;16.33;9.18;;;12.30;99.90;;;;;;5018315;28;20155;-32
2022/03/17 00:36:37;;;;;;;20.42;9.02;;;12.20;99.90;;;;;;5032948;28;20029;-31
2022/03/17 00:39:04;;;;;;;17.40;9.05;;;12.30;99.90;;;;;;5033741;28;20096;-37
2022/03/17 00:41:31;;;;;;;17.15;9.40;;;12.30;99.90;;;;;;5022887;28;20037;-36
2022/03/17 00:43:56;;;;;;;16.40;9.15;;;12.30;99.90;;;;;;5024650;28;20486;-40
2022/03/17 00:46:22;;;;;;;15.65;9.20;;;12.30;99.90;;;;;;5020558;28;20119;-32
2022/03/17 00:48:48;;;;;;;16.05;9.20;;;12.30;99.90;;;;;;5032174;28;20018;-35
2022/03/17 00:51:13;;;;;;;17.17;9.77;;;12.30;99.90;;;;;;5021296;28;20447;-34
2022/03/17 00:53:39;;;;;;;19.88;9.57;;;12.30;99.90;;;;;;5019516;28;20067;-38
2022/03/17 00:56:04;;;;;;;20.33;9.23;;;12.30;99.90;;;;;;5024355;28;20025;-38
2022/03/17 00:58:30;;;;;;;14.35;8.30;;;12.30;99.90;;;;;;5028212;28;20038;-38
2022/03/17 01:00:56;;;;;;;16.00;8.85;;;12.30;99.90;;;;;;5026522;28;20474;-39
2022/03/17 01:03:22;;;;;;;16.15;8.68;;;12.40;99.90;;;;;;5032737;28;20104;-34
2022/03/17 01:05:47;;;;;;;14.68;9.02;;;12.40;99.90;;;;;;5032319;28;20470;-32
2022/03/17 01:08:13;;;;;;;17.65;9.27;;;12.40;99.90;;;;;;5026297;28;20030;-37
2022/03/17 01:10:39;;;;;;;17.95;8.98;;;12.40;99.90;;;;;;5027792;28;20383;-32
2022/03/17 01:13:05;;;;;;;18.58;9.40;;;12.50;99.90;;;;;;5027032;28;20475;-33
2022/03/17 01:15:31;;;;;;;17.52;8.90;;;12.50;99.90;;;;;;5023918;28;20033;-42
2022/03/17 01:17:57;;;;;;;18.48;8.68;;;12.50;99.90;;;;;;5032177;28;20474;-39
2022/03/17 01:20:23;;;;;;;21.90;9.57;;;12.50;99.90;;;;;;5032962;28;20458;-38
2022/03/17 01:22:48;;;;;;;22.70;9.70;;;12.40;99.90;;;;;;5032510;28;20032;-34
2022/03/17 01:25:14;;;;;;;15.40;8.73;;;12.50;99.90;;;;;;5031617;28;20662;-34
2022/03/17 01:27:40;;;;;;;17.67;9.23;;;12.50;99.90;;;;;;5026839;28;20108;-33
2022/03/17 01:30:09;;;;;;;18.40;9.55;;;12.50;99.90;;;;;;5019983;28;20026;-36
2022/03/17 01:32:37;;;;;;;19.05;9.80;;;12.50;99.90;;;;;;5024692;28;20487;-38
2022/03/17 01:35:03;;;;;;;;;;;12.50;99.90;;;;;;5019430;28;20029;-39
2022/03/17 01:37:29;;;;;;;18.25;8.60;;;12.60;99.90;;;;;;5026367;28;20400;-30
2022/03/17 01:39:54;;;;;;;17.67;8.82;;;12.50;99.90;;;;;;5029897;28;20026;-35
2022/03/17 01:42:20;;;;;;;16.75;9.07;;;12.50;99.90;;;;;;5024493;28;20025;-35
2022/03/17 01:44:46;;;;;;;18.92;10.35;;;12.50;99.90;;;;;;5031179;28;20155;-33
2022/03/17 01:47:27;;;;;;;16.20;9.13;;;12.50;99.90;;;;;;5029330;28;20014;-51
2022/03/17 01:50:13;;;;;;;18.35;10.15;;;12.50;99.90;;;;;;5022159;28;20017;-40
2022/03/17 01:52:57;;;;;;;26.58;10.38;;;12.50;99.90;;;;;;5030760;28;20561;-40
2022/03/17 01:55:23;;;;;;;17.67;10.50;;;12.50;99.90;;;;;;5023844;28;20466;-40
2022/03/17 01:57:49;;;;;;;25.65;11.02;;;12.50;99.90;;;;;;5030371;28;20079;-36
2022/03/17 02:00:18;;;;;;;20.40;9.30;;;12.50;99.90;;;;;;5028029;28;20051;-39
2022/03/17 02:02:49;;;;;;;23.15;11.13;;;12.40;99.90;;;;;;5029138;28;20021;-39
2022/03/17 02:05:17;;;;;;;18.98;10.50;;;12.40;99.90;;;;;;5026017;28;20398;-43
2022/03/17 02:07:47;;;;;;;27.77;12.15;;;12.40;99.90;;;;;;5031828;28;20037;-38
2022/03/17 02:10:12;;;;;;;20.20;10.15;;;12.30;99.90;;;;;;5014855;28;20272;-40
2022/03/17 02:15:26;;;;;;;28.67;12.15;;;12.20;99.90;;;;;;5019826;28;20036;-38
2022/03/17 02:17:52;;;;;;;25.65;12.40;;;12.10;99.90;;;;;;5030937;28;20462;-37
2022/03/17 02:20:18;;;;;;;27.50;12.75;;;12.00;99.90;;;;;;5030208;28;20026;-37
2022/03/17 02:22:46;;;;;;;27.30;12.35;;;11.90;99.90;;;;;;5030814;28;20021;-38
2022/03/17 02:27:59;;;;;;;23.58;12.45;;;11.80;99.90;;;;;;5032255;28;20039;-38
2022/03/17 02:30:26;;;;;;;35.30;12.93;;;11.70;99.90;;;;;;5028588;28;20505;-39
2022/03/17 02:33:01;;;;;;;26.08;13.43;;;11.70;99.90;;;;;;5024693;28;20052;-32
2022/03/17 02:35:28;;;;;;;28.92;13.25;;;11.60;99.90;;;;;;5029239;28;20029;-32
2022/03/17 02:37:55;;;;;;;27.38;14.73;;;11.50;99.90;;;;;;5027576;28;20021;-38
2022/03/17 02:40:21;;;;;;;28.80;13.30;;;11.50;99.90;;;;;;5028668;28;20027;-34
2022/03/17 02:42:48;;;;;;;28.80;13.80;;;11.50;99.90;;;;;;5030663;28;20029;-34
2022/03/17 02:45:14;;;;;;;27.13;13.23;;;11.50;99.90;;;;;;5019617;28;20037;-39
2022/03/17 02:47:42;;;;;;;19.63;10.77;;;11.70;99.90;;;;;;5031094;28;20303;-38
2022/03/17 02:50:10;;;;;;;15.25;8.27;;;11.70;99.90;;;;;;5028492;28;20167;-37
2022/03/17 02:52:35;;;;;;;8.38;5.07;;;11.50;99.90;;;;;;5031506;28;20482;-38
2022/03/17 02:55:01;;;;;;;6.75;4.30;;;11.00;99.90;;;;;;5030993;28;20038;-34
2022/03/17 02:57:27;;;;;;;8.63;3.30;;;10.70;99.90;;;;;;5029956;28;20394;-34
2022/03/17 02:59:52;;;;;;;5.65;3.63;;;10.30;99.90;;;;;;5025695;28;20056;-39
2022/03/17 03:02:22;;;;;;;9.13;3.22;;;10.10;99.90;;;;;;5031066;28;20028;-33
2022/03/17 03:04:48;;;;;;;4.25;2.90;;;9.90;99.90;;;;;;5023554;28;20103;-30
2022/03/17 03:07:14;;;;;;;3.85;2.40;;;9.70;99.90;;;;;;5017733;28;20030;-32
2022/03/17 03:09:40;;;;;;;5.38;3.00;;;9.60;99.90;;;;;;5018801;28;20080;-37
2022/03/17 03:12:06;;;;;;;6.68;2.95;;;9.50;99.90;;;;;;5022220;28;20030;-32
2022/03/17 03:14:32;;;;;;;7.18;2.90;;;9.50;99.90;;;;;;5031161;28;20025;-39
2022/03/17 03:16:58;;;;;;;6.78;2.83;;;9.40;99.90;;;;;;5031483;28;20037;-35
2022/03/17 03:19:24;;;;;;;6.10;2.75;;;9.40;99.90;;;;;;5029430;28;20374;-41
2022/03/17 03:21:50;;;;;;;4.45;2.75;;;9.40;99.90;;;;;;5030631;28;20603;-33
2022/03/17 03:24:16;;;;;;;6.80;2.92;;;9.30;99.90;;;;;;5022517;28;20056;-41
2022/03/17 03:26:43;;;;;;;5.25;3.10;;;9.30;99.90;;;;;;5032240;28;20056;-32
2022/03/17 03:31:39;;;;;;;7.22;3.55;;;9.20;99.90;;;;;;5025732;28;20056;-37
2022/03/17 03:34:04;;;;;;;9.32;3.38;;;9.30;99.90;;;;;;5025415;28;20421;-38
2022/03/17 03:39:14;;;;;;;7.82;3.00;;;9.20;99.90;;;;;;5028224;28;20108;-33
2022/03/17 03:41:39;;;;;;;12.07;4.03;;;9.30;99.90;;;;;;5030800;28;20128;-45
2022/03/17 03:44:05;;;;;;;6.85;3.70;;;9.20;99.90;;;;;;5029044;28;20029;-32
2022/03/17 03:46:31;;;;;;;11.45;3.55;;;9.10;99.90;;;;;;5032025;28;20025;-32
2022/03/17 03:48:56;;;;;;;9.05;4.60;;;9.10;99.90;;;;;;5030103;28;20033;-36
2022/03/17 03:51:22;;;;;;;11.68;4.13;;;9.10;99.90;;;;;;5032851;28;20033;-35
2022/03/17 03:56:32;;;;;;;10.68;4.25;;;9.10;99.90;;;;;;5017037;28;20037;-38
2022/03/17 03:59:01;;;;;;;13.10;4.32;;;9.10;99.90;;;;;;5028591;28;20021;-35
2022/03/17 04:01:26;;;;;;;10.02;4.65;;;9.00;99.90;;;;;;5034107;28;20463;-33
2022/03/17 04:03:52;;;;;;;15.60;5.55;;;9.00;99.90;;;;;;5033253;28;20023;-32
2022/03/17 04:06:18;;;;;;;16.23;5.63;;;9.00;99.90;;;;;;5034205;28;20046;-37
2022/03/17 04:08:43;;;;;;;12.07;5.55;;;9.10;99.90;;;;;;5033465;28;20155;-38
2022/03/17 04:11:09;;;;;;;15.93;6.25;;;9.10;99.90;;;;;;5032809;28;20030;-35
2022/03/17 04:13:35;;;;;;;12.23;6.03;;;9.10;99.90;;;;;;5033634;28;20473;-33
2022/03/17 04:16:01;;;;;;;13.60;5.75;;;9.00;99.90;;;;;;5034747;28;20474;-33
2022/03/17 04:18:26;;;;;;;10.95;5.28;;;9.00;99.90;;;;;;5032603;28;20030;-34
2022/03/17 04:20:53;;;;;;;20.63;4.93;;;8.90;99.90;;;;;;5033152;28;20069;-34
2022/03/17 04:23:19;;;;;;;10.70;4.45;;;8.90;99.90;;;;;;5033794;28;20087;-37
2022/03/17 04:25:44;;;;;;;7.95;3.33;;;8.80;99.90;;;;;;5031397;28;20032;-33
2022/03/17 04:28:11;;;;;;;17.35;3.92;;;8.80;99.90;;;;;;5027106;28;20025;-36
2022/03/17 04:30:36;;;;;;;11.73;2.92;;;8.90;99.90;;;;;;5030514;28;20040;-33
2022/03/17 04:33:02;;;;;;;8.77;2.80;;;8.80;99.90;;;;;;5033600;28;20393;-35
2022/03/17 04:35:28;;;;;;;10.00;2.58;;;8.90;99.90;;;;;;5024105;28;20062;-37
2022/03/17 04:37:53;;;;;;;9.85;2.80;;;8.70;99.90;;;;;;5020305;28;20068;-36
2022/03/17 04:40:19;;;;;;;10.90;1.85;;;8.80;99.90;;;;;;5033288;28;20017;-34
2022/03/17 04:42:45;;;;;;;10.32;2.38;;;8.80;99.90;;;;;;5032858;28;20021;-35
2022/03/17 04:45:10;;;;;;;14.20;2.42;;;8.80;99.90;;;;;;5034653;28;20120;-37
2022/03/17 04:47:36;;;;;;;9.65;1.50;;;8.80;99.90;;;;;;5028828;28;20025;-37
2022/03/17 04:50:02;;;;;;;14.70;2.13;;;8.70;99.90;;;;;;5027145;28;20025;-35
2022/03/17 04:55:12;;;;;;;9.77;1.75;;;8.70;99.90;;;;;;5015863;28;20108;-38
2022/03/17 04:57:38;;;;;;;13.95;2.35;;;8.70;99.90;;;;;;5030413;28;20029;-39
2022/03/17 05:00:06;;;;;;;15.02;1.73;;;8.80;99.90;;;;;;5033990;28;20021;-37
2022/03/17 05:02:31;;;;;;;10.80;1.90;;;8.80;99.90;;;;;;5025927;28;20336;-42
2022/03/17 05:04:57;;;;;;;12.43;2.38;;;8.80;99.90;;;;;;5032745;28;20036;-34
2022/03/17 05:07:23;;;;;;;7.45;1.65;;;8.80;99.90;;;;;;5031777;28;20032;-32
2022/03/17 05:09:48;;;;;;;14.68;2.45;;;8.70;99.90;;;;;;5030617;28;20029;-48
2022/03/17 05:12:14;;;;;;;12.38;2.17;;;8.60;99.90;;;;;;5019251;28;20021;-46
2022/03/17 05:14:40;;;;;;;3.10;1.35;;;8.50;99.90;;;;;;5032489;28;20033;-40
2022/03/17 05:17:05;;;;;;;8.80;1.38;;;8.60;99.90;;;;;;5021642;28;20481;-40
2022/03/17 05:19:31;;;;;;;12.30;1.80;;;8.60;99.90;;;;;;5023013;28;20021;-34
2022/03/17 05:21:57;;;;;;;7.68;2.15;;;8.60;99.90;;;;;;5022999;28;20601;-40
2022/03/17 05:24:22;;;;;;;6.95;1.48;;;8.60;99.90;;;;;;5023602;28;20057;-42
2022/03/17 05:26:48;;;;;;;6.13;1.55;;;8.60;99.90;;;;;;5029966;28;20498;-39
2022/03/17 05:29:13;;;;;;;6.78;1.33;;;8.60;99.90;;;;;;5027959;28;20113;-37
2022/03/17 05:31:40;;;;;;;10.95;1.63;;;8.60;99.90;;;;;;5013528;28;20026;-39
2022/03/17 05:34:06;;;;;;;12.90;1.88;;;8.50;99.90;;;;;;5030107;28;20413;-43
2022/03/17 05:36:32;;;;;;;10.52;1.42;;;8.50;99.90;;;;;;5027061;28;20028;-37
2022/03/17 05:38:57;;;;;;;8.27;1.52;;;8.50;99.90;;;;;;5017653;28;20064;-41
2022/03/17 05:41:23;;;;;;;12.70;1.52;;;8.60;99.90;;;;;;5028571;28;20022;-39
2022/03/17 05:43:48;;;;;;;13.05;1.83;;;8.60;99.90;;;;;;5031871;28;20508;-40
2022/03/17 05:46:14;;;;;;;9.15;1.83;;;8.60;99.90;;;;;;5032179;28;20506;-40
2022/03/17 05:48:40;;;;;;;12.68;1.63;;;8.50;99.90;;;;;;5015718;28;20506;-33
2022/03/17 05:51:06;;;;;;;13.63;1.65;;;8.40;99.90;;;;;;5016909;28;20034;-36
2022/03/17 05:53:32;;;;;;;15.05;1.65;;;8.40;99.90;;;;;;5024006;28;20079;-31
2022/03/17 05:55:57;;;;;;;13.30;1.85;;;8.40;99.90;;;;;;5019129;28;20033;-35
2022/03/17 05:58:23;;;;;;;8.93;1.80;;;8.40;99.90;;;;;;5023628;28;20025;-34
2022/03/17 06:00:49;;;;;;;10.80;1.65;;;8.40;99.90;;;;;;5020309;28;20083;-35
2022/03/17 06:03:14;;;;;;;13.80;2.92;;;8.30;99.90;;;;;;5029999;28;20088;-42
2022/03/17 06:05:40;;;;;;;12.25;2.42;;;8.20;99.90;;;;;;5022050;28;20029;-34
2022/03/17 06:08:05;;;;;;;16.38;2.42;;;8.30;99.90;;;;;;5027293;28;20077;-34
2022/03/17 06:10:33;;;;;;;6.60;1.80;;;8.30;99.90;;;;;;5024893;28;20153;-38
2022/03/17 06:13:00;;;;;;;16.93;2.63;;;8.30;99.90;;;;;;5019099;28;20036;-34
2022/03/17 06:15:27;;;;;;;15.70;2.17;;;8.30;99.90;;;;;;5020639;28;20371;-38
2022/03/17 06:17:55;;;;;;;8.63;2.38;;;8.40;99.90;;;;;;5032206;28;20029;-58
2022/03/17 06:20:26;;;;;;;10.23;1.85;;;8.50;99.90;;;;;;5023997;28;20022;-34
2022/03/17 06:22:55;;;;;;;6.53;1.42;;;8.40;99.90;;;;;;5029772;28;20079;-39
2022/03/17 06:25:23;;;;;;;5.53;1.30;;;8.30;99.90;;;;;;5030419;28;20029;-38
2022/03/17 06:27:49;;;;;;;9.35;1.60;;;8.30;99.90;;;;;;5021938;28;20482;-39
2022/03/17 06:30:23;;;;;;;11.02;2.40;;;8.20;99.90;;;;;;5026819;28;20026;-34
2022/03/17 06:32:50;;;;;;;11.75;1.48;;;8.20;99.90;;;;;;5024798;28;20024;-39
2022/03/17 06:35:18;;;;;;;16.83;1.80;;;8.20;99.90;;;;;;5027709;28;20040;-38
2022/03/17 06:37:44;;;;;;;;;;;8.30;99.90;;;;;;5027991;28;20033;-39
2022/03/17 06:40:11;;;;;;;13.38;1.40;;;8.30;99.90;;;;;;5032063;28;19960;-38
2022/03/17 06:42:37;;;;;;;13.02;2.63;;;8.30;99.90;;;;;;5024935;28;20478;-40
2022/03/17 06:45:03;;;;;;;2.50;1.23;;;8.30;99.90;;;;;;5019624;28;20076;-39
2022/03/17 06:47:28;;;;;;;3.17;1.10;;;8.40;99.90;;;;;;5013159;28;20033;-39
2022/03/17 06:49:54;;;;;;;5.72;1.88;;;8.40;99.90;;;;;;5026696;28;20026;-40
2022/03/17 06:52:20;;;;;;;4.55;1.25;;;8.40;99.90;;;;;;5020434;28;20061;-44
2022/03/17 06:54:46;;;;;;;9.02;1.38;;;8.50;99.90;;;;;;5024345;28;20147;-39
2022/03/17 06:57:17;;;;;;;10.85;1.58;;;8.40;99.90;;;;;;5024190;28;20068;-40
2022/03/17 06:59:43;;;;;;;5.53;1.17;;;8.40;99.90;;;;;;5023359;28;20078;-41
2022/03/17 07:02:08;;;;;;;13.10;1.67;;;8.40;99.90;;;;;;5028811;28;20111;-39
2022/03/17 07:04:34;;;;;;;7.75;1.17;;;8.40;99.90;;;;;;5030051;28;20171;-38
2022/03/17 07:06:59;;;;;;;5.95;1.05;;;8.30;99.90;;;;;;5022431;28;20049;-40
2022/03/17 07:09:25;;;;;;;10.25;1.67;;;8.30;99.90;;;;;;5021503;28;20434;-43
2022/03/17 07:11:51;;;;;;;11.32;1.50;;;8.40;99.90;;;;;;5024833;28;20039;-40
2022/03/17 07:14:16;;;;;;;13.30;1.58;;;8.30;99.90;;;;;;5029234;28;20026;-40
2022/03/17 07:16:42;;;;;;;11.32;1.33;;;8.30;99.90;;;;;;5025813;28;20117;-38
2022/03/17 07:19:07;;;;;;;9.60;1.10;;;8.30;99.90;;;;;;5029992;28;20021;-37
2022/03/17 07:21:34;;;;;;;14.05;1.30;;;8.30;99.90;;;;;;5018651;28;20046;-38
2022/03/17 07:24:00;;;;;;;3.30;1.10;;;8.40;99.90;;;;;;5031875;28;20494;-40
2022/03/17 07:26:27;;;;;;;12.73;1.70;;;8.40;99.90;;;;;;5027882;28;20288;-37
2022/03/17 07:28:54;;;;;;;9.30;1.30;;;8.40;99.90;;;;;;5027619;28;20077;-39
2022/03/17 07:31:21;;;;;;;11.00;1.30;;;8.40;99.90;;;;;;5021860;28;20109;-38
2022/03/17 07:33:49;;;;;;;11.80;2.17;;;8.50;99.90;;;;;;5029377;28;20521;-39
2022/03/17 07:36:15;;;;;;;13.13;2.03;;;8.50;99.90;;;;;;5028010;28;20125;-40
2022/03/17 07:38:41;;;;;;;12.82;1.42;;;8.60;99.90;;;;;;5026653;28;20075;-37
2022/03/17 07:41:07;;;;;;;6.15;1.05;;;8.60;99.90;;;;;;5024626;28;20482;-38
2022/03/17 07:43:32;;;;;;;12.85;1.70;;;8.60;99.90;;;;;;5035942;28;20518;-38
2022/03/17 07:45:58;;;;;;;7.32;1.30;;;8.70;99.90;;;;;;5026967;28;20490;-39
2022/03/17 07:48:23;;;;;;;7.00;1.42;;;8.70;99.90;;;;;;5027729;28;20446;-39
2022/03/17 07:50:52;;;;;;;8.70;1.42;;;8.70;99.90;;;;;;5024120;28;20657;-38
2022/03/17 07:53:18;;;;;;;5.40;0.70;;;8.70;99.90;;;;;;5022119;28;20033;-39
2022/03/17 07:55:44;;;;;;;5.68;1.48;;;8.70;99.90;;;;;;5033982;28;20389;-60
2022/03/17 07:58:11;;;;;;;5.47;1.75;;;8.70;99.90;;;;;;5034768;28;20038;-37
2022/03/17 08:00:39;;;;;;;10.20;1.53;;;8.80;99.90;;;;;;5019145;28;20033;-32
2022/03/17 08:03:05;;;;;;;5.65;1.45;;;8.80;99.90;;;;;;5015308;28;20022;-49
2022/03/17 08:05:31;;;;;;;6.45;2.10;;;8.80;99.90;;;;;;5032405;28;20067;-40
2022/03/17 08:07:59;;;;;;;10.38;1.05;;;8.90;99.90;;;;;;5034465;28;20029;-41
2022/03/17 08:10:25;;;;;;;5.05;1.15;;;8.90;99.90;;;;;;5031825;28;20496;-31
2022/03/17 08:12:51;;;;;;;10.95;1.25;;;8.80;99.90;;;;;;5014945;28;20033;-33
2022/03/17 08:15:16;;;;;;;16.48;1.95;;;8.90;99.90;;;;;;5018289;28;20026;-33
2022/03/17 08:17:42;;;;;;;9.55;1.65;;;9.00;99.90;;;;;;5017553;28;20032;-33
2022/03/17 08:20:08;;;;;;;5.85;1.15;;;8.90;99.90;;;;;;5023226;28;20087;-32
2022/03/17 08:22:34;;;;;;;12.52;1.58;;;8.90;99.90;;;;;;5029007;28;20117;-32
2022/03/17 08:25:00;;;;;;;17.33;2.28;;;8.80;99.90;;;;;;5028567;28;20175;-35
2022/03/17 08:27:25;;;;;;;10.40;1.45;;;8.90;99.90;;;;;;5028689;28;20037;-34
2022/03/17 08:29:51;;;;;;;10.93;2.00;;;8.90;99.90;;;;;;5032618;28;20505;-32
2022/03/17 08:32:17;;;;;;;9.40;1.52;;;8.80;99.90;;;;;;5023967;28;20096;-34
2022/03/17 08:34:43;;;;;;;6.97;1.17;;;8.70;99.90;;;;;;5031179;28;20113;-34
2022/03/17 08:37:09;;;;;;;12.45;1.65;;;8.70;99.90;;;;;;5019227;28;20112;-32
2022/03/17 08:39:35;;;;;;;10.57;1.13;;;8.70;99.90;;;;;;5034070;28;20414;-41
2022/03/17 08:42:01;;;;;;;9.60;1.95;;;8.70;99.90;;;;;;5034284;28;20024;-40
2022/03/17 08:44:27;;;;;;;10.15;0.90;;;8.70;99.90;;;;;;5033169;28;20060;-39
2022/03/17 08:49:37;;;;;;;7.18;0.95;;;8.80;99.90;;;;;;5028664;28;20075;-33
2022/03/17 08:52:03;;;;;;;11.75;1.27;;;8.80;99.90;;;;;;5029070;28;20061;-38
2022/03/17 08:54:33;;;;;;;7.75;1.10;;;8.90;99.90;;;;;;5028998;28;20455;-34
2022/03/17 08:56:59;;;;;;;11.32;2.72;;;8.90;99.90;;;;;;5029441;28;20034;-36
2022/03/17 08:59:32;;;;;;;7.50;1.33;;;8.90;99.90;;;;;;5022696;28;20018;-31
2022/03/17 09:01:58;;;;;;;3.47;1.00;;;9.00;99.90;;;;;;5023915;28;20053;-35
2022/03/17 09:04:24;;;;;;;4.05;0.95;;;9.10;99.90;;;;;;5025346;28;20026;-34
2022/03/17 09:06:49;;;;;;;8.90;1.20;;;9.20;99.90;;;;;;5020676;28;20037;-30
2022/03/17 09:09:15;;;;;;;6.43;0.95;;;9.40;99.90;;;;;;5034208;28;20060;-34
2022/03/17 09:11:41;;;;;;;5.80;1.15;;;9.40;99.90;;;;;;5017969;28;20026;-37
2022/03/17 09:14:07;;;;;;;6.95;0.85;;;9.60;99.90;;;;;;5017635;28;20017;-39
2022/03/17 09:16:34;;;;;;;7.32;1.40;;;9.80;99.90;;;;;;5025084;28;20048;-36
2022/03/17 09:18:59;;;;;;;7.82;0.95;;;9.90;99.90;;;;;;5013434;28;20041;-37
2022/03/17 09:21:27;;;;;;;4.55;0.80;;;9.90;99.90;;;;;;5014890;28;20036;-39
2022/03/17 09:23:53;;;;;;;6.03;1.45;;;10.10;99.90;;;;;;5016767;28;20022;-40
2022/03/17 09:26:19;;;;;;;3.50;1.00;;;10.10;99.90;;;;;;5023505;28;20017;-38
2022/03/17 09:28:45;;;;;;;9.90;1.85;;;9.90;99.90;;;;;;5024539;28;20178;-40
2022/03/17 09:31:11;;;;;;;3.85;1.00;;;10.00;99.90;;;;;;5023802;28;20030;-37
2022/03/17 09:33:36;;;;;;;5.22;0.88;;;10.10;99.90;;;;;;5024504;28;20036;-63
2022/03/17 09:36:02;;;;;;;7.22;1.30;;;10.10;99.90;;;;;;5022709;28;20057;-38
2022/03/17 09:38:28;;;;;;;4.13;0.80;;;10.20;99.90;;;;;;5024721;28;20454;-41
2022/03/17 09:40:54;;;;;;;2.08;0.60;;;10.40;99.90;;;;;;5026049;28;20028;-38
2022/03/17 09:43:21;;;;;;;8.75;1.50;;;10.40;99.90;;;;;;5032942;28;20036;-39
2022/03/17 09:45:50;;;;;;;9.50;1.75;;;10.30;99.90;;;;;;5027057;28;20025;-40
2022/03/17 09:48:17;;;;;;;8.02;1.00;;;10.40;99.90;;;;;;5030599;28;20033;-57
2022/03/17 09:50:45;;;;;;;4.82;0.82;;;10.40;99.90;;;;;;5045182;28;20495;-40
2022/03/17 09:53:10;;;;;;;8.57;0.82;;;10.30;99.90;;;;;;5028384;28;20057;-38
2022/03/17 09:55:37;;;;;;;7.13;1.35;;;10.50;99.90;;;;;;5028074;28;20029;-40
2022/03/17 09:58:04;;;;;;;5.25;0.90;;;10.70;99.90;;;;;;5025436;28;20030;-39
2022/03/17 10:00:49;;;;;;;7.63;1.15;;;10.80;99.90;;;;;;5026213;28;20541;-35
2022/03/17 10:03:26;;;;;;;7.20;1.13;;;10.80;99.90;;;;;;5028565;28;20022;-38
2022/03/17 10:05:53;;;;;;;1.15;0.52;;;10.90;99.90;;;;;;5032900;28;20029;-42
2022/03/17 10:08:20;;;;;;;3.42;0.75;;;11.00;99.90;;;;;;5031443;28;20372;-32
2022/03/17 10:10:47;;;;;;;2.38;0.90;;;11.00;99.90;;;;;;5027335;28;20026;-38
2022/03/17 10:13:26;;;;;;;7.82;1.20;;;11.00;99.90;;;;;;5029084;28;20040;-35
2022/03/17 10:16:11;;;;;;;5.18;0.77;;;11.00;99.90;;;;;;5030599;28;20536;-37
2022/03/17 10:18:38;;;;;;;11.93;1.20;;;10.60;99.90;;;;;;5030154;28;20182;-34
2022/03/17 10:21:16;;;;;;;5.57;1.48;;;10.60;99.90;;;;;;5030101;28;20013;-37
2022/03/17 10:24:01;;;;;;;2.72;0.82;;;10.70;99.90;;;;;;5017184;28;20069;-39
2022/03/17 10:26:44;;;;;;;4.93;0.88;;;11.00;99.90;;;;;;5022347;28;20025;-49
2022/03/17 10:29:11;;;;;;;10.00;1.10;;;11.00;99.90;;;;;;5030688;28;20041;-38
2022/03/17 10:32:06;;;;;;;7.50;1.88;;;10.90;99.90;;;;;;5020567;28;20021;-39
2022/03/17 10:34:33;;;;;;;2.33;0.77;;;10.90;99.90;;;;;;5017746;28;20045;-38
2022/03/17 10:37:13;;;;;;;1.48;0.70;;;11.00;99.90;;;;;;5027418;28;20022;-39
2022/03/17 10:40:11;;;;;;;6.85;1.00;;;10.90;99.90;;;;;;5022661;28;20056;-40
2022/03/17 10:42:38;;;;;;;7.57;0.90;;;10.80;99.90;;;;;;5015356;28;20517;-39
2022/03/17 10:45:06;;;;;;;4.60;0.98;;;11.00;99.90;;;;;;5027241;28;20025;-37
2022/03/17 10:47:33;;;;;;;7.53;0.88;;;11.10;99.90;;;;;;5025968;28;20474;-37
2022/03/17 10:50:02;;;;;;;1.70;0.80;;;11.20;99.90;;;;;;5030068;28;20036;-38
2022/03/17 10:52:58;;;;;;;8.05;0.90;;;11.30;99.90;;;;;;5023270;28;20037;-40
2022/03/17 10:55:31;;;;;;;4.32;0.98;;;11.20;99.90;;;;;;5014667;28;20022;-38
2022/03/17 10:58:15;;;;;;;8.55;1.42;;;11.40;99.90;;;;;;5030623;28;20369;-38
2022/03/17 11:00:56;;;;;;;13.23;1.15;;;11.40;99.90;;;;;;5026241;28;20013;-36
2022/03/17 11:03:23;;;;;;;4.68;1.02;;;11.30;99.90;;;;;;5024719;28;20497;-37
2022/03/17 11:05:51;;;;;;;2.95;1.13;;;11.30;99.90;;;;;;5027654;28;20026;-37
2022/03/17 11:08:20;;;;;;;6.43;1.38;;;11.30;99.90;;;;;;5030279;28;20029;-37
2022/03/17 11:10:46;;;;;;;9.13;2.17;;;11.30;99.90;;;;;;5026490;28;20382;-37
2022/03/17 11:13:12;;;;;;;10.00;1.75;;;11.50;99.90;;;;;;5030577;28;20022;-37
2022/03/17 11:15:45;;;;;;;2.40;1.77;;;11.20;99.90;;;;;;5035069;28;21460;-40
2022/03/17 11:18:19;;;;;;;2.58;1.20;;;11.20;99.90;;;;;;5034174;28;20057;-39
2022/03/17 11:20:45;;;;;;;4.68;1.23;;;11.20;99.90;;;;;;5035720;28;20025;-40
2022/03/17 11:23:19;;;;;;;2.72;1.10;;;11.10;99.90;;;;;;5035525;28;20404;-40
2022/03/17 11:25:53;;;;;;;8.52;1.65;;;11.20;99.90;;;;;;5023093;28;20054;-37
2022/03/17 11:28:41;;;;;;;6.70;1.52;;;11.00;99.90;;;;;;5026553;28;20037;-36
2022/03/17 11:31:09;;;;;;;4.72;1.80;;;11.20;99.90;;;;;;5035645;28;20030;-37
2022/03/17 11:33:44;;;;;;;15.13;2.73;;;11.30;99.90;;;;;;5030084;28;20033;-38
2022/03/17 11:36:10;;;;;;;17.52;2.63;;;11.50;99.90;;;;;;5023067;28;20068;-39
2022/03/17 11:38:37;;;;;;;12.50;1.75;;;11.20;99.90;;;;;;5025019;28;20037;-40
2022/03/17 11:41:10;;;;;;;1.93;0.57;;;11.00;99.90;;;;;;5034350;28;20032;-38
2022/03/17 11:43:45;;;;;;;5.15;1.00;;;11.20;99.90;;;;;;5035479;28;20032;-38
2022/03/17 11:46:19;;;;;;;9.95;1.55;;;11.30;99.90;;;;;;5031788;28;20084;-38
2022/03/17 11:48:51;;;;;;;6.35;1.73;;;11.40;99.90;;;;;;5034425;28;20358;-39
2022/03/17 11:51:17;;;;;;;5.32;1.23;;;11.60;99.90;;;;;;5031378;28;20091;-39
2022/03/17 11:53:52;;;;;;;6.45;1.13;;;11.60;99.90;;;;;;5030943;28;20026;-38
2022/03/17 11:56:38;;;;;;;5.32;1.33;;;11.40;99.90;;;;;;5020230;28;20036;-39
2022/03/17 11:59:07;;;;;;;10.93;1.80;;;11.40;99.90;;;;;;5024784;28;20104;-38
2022/03/17 12:01:34;;;;;;;3.30;1.10;;;11.30;99.90;;;;;;5029655;28;20454;-39
2022/03/17 12:03:59;;;;;;;5.23;1.37;;;11.40;99.90;;;;;;5027310;28;20026;-39
2022/03/17 12:06:30;;;;;;;13.95;1.35;;;11.20;99.90;;;;;;5029031;28;20367;-39
2022/03/17 12:09:11;;;;;;;4.95;1.20;;;11.20;99.90;;;;;;5033026;28;20095;-38
2022/03/17 12:11:38;;;;;;;1.98;0.88;;;11.20;99.90;;;;;;5033346;28;20076;-40
2022/03/17 12:14:25;;;;;;;8.48;1.45;;;11.40;99.90;;;;;;5033385;28;20021;-39
2022/03/17 12:17:08;;;;;;;4.15;0.93;;;11.60;99.90;;;;;;5032554;28;20038;-39
2022/03/17 12:19:48;;;;;;;10.77;0.75;;;11.70;99.90;;;;;;5033412;28;20024;-38
2022/03/17 12:22:15;;;;;;;7.97;1.77;;;11.60;99.90;;;;;;5025380;28;20108;-35
2022/03/17 12:24:49;;;;;;;6.03;0.65;;;11.80;99.90;;;;;;5015673;28;20033;-31
2022/03/17 12:27:33;;;;;;;6.32;1.48;;;11.90;99.90;;;;;;5026987;28;20022;-35
2022/03/17 12:30:05;;;;;;;7.07;1.35;;;11.90;99.90;;;;;;5032161;28;20545;-34
2022/03/17 12:32:34;;;;;;;4.85;1.25;;;11.80;99.90;;;;;;5033051;28;20060;-33
2022/03/17 12:35:01;;;;;;;11.90;1.73;;;11.90;99.90;;;;;;5033287;28;20037;-35
2022/03/17 12:37:29;;;;;;;4.22;1.13;;;11.90;99.90;;;;;;5031086;28;20040;-36
2022/03/17 12:39:59;;;;;;;8.65;0.98;;;12.10;99.90;;;;;;5015574;28;20506;-31
2022/03/17 12:42:27;;;;;;;5.22;0.98;;;12.30;99.90;;;;;;5026916;28;20467;-33
2022/03/17 12:45:02;;;;;;;8.85;1.50;;;12.30;99.90;;;;;;5017853;28;20031;-33
2022/03/17 12:47:29;;;;;;;5.63;1.13;;;12.40;99.90;;;;;;5024921;28;20036;-32
2022/03/17 12:49:57;;;;;;;8.93;1.07;;;12.50;99.90;;;;;;5034284;28;20072;-31
2022/03/17 12:52:25;;;;;;;2.60;0.90;;;12.50;99.90;;;;;;5032959;28;20359;-40
2022/03/17 12:54:54;;;;;;;2.50;1.40;;;12.50;99.90;;;;;;5015048;28;20544;-40
2022/03/17 12:57:20;;;;;;;9.23;0.95;;;12.70;99.90;;;;;;5014875;28;20038;-39
2022/03/17 12:59:47;;;;;;;3.92;1.13;;;12.60;99.90;;;;;;5027411;28;20022;-59
2022/03/17 13:02:17;;;;;;;4.72;0.90;;;12.80;99.90;;;;;;5014727;28;20025;-40
2022/03/17 13:04:49;;;;;;;9.90;2.08;;;12.90;99.90;;;;;;5023349;28;20517;-42
2022/03/17 13:07:15;;;;;;;2.83;0.98;;;12.80;99.90;;;;;;5014629;28;20030;-38